createdAt,value
2018-04-15T00:00:42.841Z,48.60
2018-04-15T00:01:42.837Z,48.80
2018-04-15T00:02:42.832Z,48.30
2018-04-15T00:03:42.831Z,47.00
2018-04-15T00:04:42.822Z,47.50
2018-04-15T00:05:42.822Z,45.40
2018-04-15T00:06:42.815Z,47.10
2018-04-15T00:07:42.816Z,47.20
2018-04-15T00:08:42.814Z,45.20
2018-04-15T00:09:42.810Z,46.00
2018-04-15T00:10:42.808Z,45.50
2018-04-15T00:11:42.809Z,45.50
2018-04-15T00:12:42.805Z,44.30
2018-04-15T00:13:42.798Z,46.00
2018-04-15T00:14:42.795Z,43.70
2018-04-15T00:15:42.794Z,44.00
2018-04-15T00:16:42.785Z,42.60
2018-04-15T00:17:42.784Z,44.10
2018-04-15T00:18:42.780Z,45.20
2018-04-15T00:19:42.790Z,44.20
2018-04-15T00:20:42.777Z,43.10
2018-04-15T00:21:42.776Z,44.10
2018-04-15T00:22:42.778Z,43.70
2018-04-15T00:23:42.764Z,42.30
2018-04-15T00:24:42.801Z,41.80
2018-04-15T00:25:42.764Z,42.80
2018-04-15T00:26:42.758Z,41.80
2018-04-15T00:27:42.757Z,41.90
2018-04-15T00:28:42.759Z,41.60
2018-04-15T00:29:42.751Z,40.30
2018-04-15T00:30:42.749Z,39.70
2018-04-15T00:31:42.746Z,40.20
2018-04-15T00:32:42.740Z,41.30
2018-04-15T00:33:42.733Z,41.80
2018-04-15T00:34:42.732Z,40.20
2018-04-15T00:35:42.728Z,39.50
2018-04-15T00:36:42.724Z,40.60
2018-04-15T00:37:42.732Z,39.70
2018-04-15T00:38:42.719Z,36.80
2018-04-15T00:39:42.718Z,40.30
2018-04-15T00:40:42.717Z,36.50
2018-04-15T00:41:42.712Z,35.80
2018-04-15T00:42:42.707Z,35.70
2018-04-15T00:43:42.706Z,32.80
2018-04-15T00:44:42.701Z,33.70
2018-04-15T00:45:42.700Z,31.60
2018-04-15T00:46:42.695Z,30.90
2018-04-15T00:47:42.688Z,30.70
2018-04-15T00:48:42.686Z,32.60
2018-04-15T00:49:42.684Z,33.00
2018-04-15T00:50:42.683Z,32.40
2018-04-15T00:51:42.677Z,34.00
2018-04-15T00:52:42.674Z,32.20
2018-04-15T00:53:42.674Z,33.70
2018-04-15T00:54:42.664Z,31.40
2018-04-15T00:55:42.661Z,31.00
2018-04-15T00:56:42.661Z,31.90
2018-04-15T00:57:42.663Z,36.10
2018-04-15T00:58:42.657Z,37.10
2018-04-15T00:59:42.652Z,37.30
2018-04-15T01:00:42.649Z,38.40
2018-04-15T01:01:42.658Z,40.20
2018-04-15T01:02:42.641Z,39.80
2018-04-15T01:03:42.641Z,40.60
2018-04-15T01:04:42.637Z,42.20
2018-04-15T01:05:42.637Z,41.20
2018-04-15T01:06:42.632Z,43.10
2018-04-15T01:07:42.624Z,42.50
2018-04-15T01:08:42.633Z,42.20
2018-04-15T01:09:42.628Z,42.90
2018-04-15T01:10:42.619Z,42.00
2018-04-15T01:11:42.616Z,40.60
2018-04-15T01:12:42.612Z,37.10
2018-04-15T01:13:42.613Z,38.00
2018-04-15T01:14:42.612Z,35.70
2018-04-15T01:15:42.598Z,35.60
2018-04-15T01:16:42.597Z,35.40
2018-04-15T01:17:42.595Z,35.30
2018-04-15T01:18:42.590Z,34.10
2018-04-15T01:19:42.592Z,34.50
2018-04-15T01:20:42.593Z,35.60
2018-04-15T01:21:42.587Z,35.40
2018-04-15T01:22:42.576Z,34.90
2018-04-15T01:23:42.581Z,35.10
2018-04-15T01:24:42.583Z,35.40
2018-04-15T01:25:42.568Z,34.00
2018-04-15T01:26:42.570Z,36.90
2018-04-15T01:27:42.561Z,35.70
2018-04-15T01:28:42.555Z,36.20
2018-04-15T01:29:42.555Z,36.80
2018-04-15T01:30:42.558Z,38.80
2018-04-15T01:31:42.552Z,39.10
2018-04-15T01:32:42.545Z,37.10
2018-04-15T01:33:42.544Z,35.80
2018-04-15T01:34:42.538Z,36.30
2018-04-15T01:35:42.535Z,38.40
2018-04-15T01:36:42.533Z,36.70
2018-04-15T01:37:42.540Z,36.60
2018-04-15T01:38:42.530Z,37.20
2018-04-15T01:39:42.523Z,38.70
2018-04-15T01:40:42.520Z,36.60
2018-04-15T01:41:42.521Z,38.20
2018-04-15T01:42:42.516Z,37.30
2018-04-15T01:43:42.514Z,39.20
2018-04-15T01:44:42.512Z,38.40
2018-04-15T01:45:42.508Z,39.80
2018-04-15T01:46:42.516Z,38.80
2018-04-15T01:47:42.496Z,39.60
2018-04-15T01:48:42.495Z,36.90
2018-04-15T01:49:42.495Z,36.90
2018-04-15T01:50:42.487Z,37.30
2018-04-15T01:51:42.481Z,37.80
2018-04-15T01:52:42.484Z,38.10
2018-04-15T01:53:42.481Z,38.10
2018-04-15T01:54:42.475Z,38.70
2018-04-15T01:55:42.477Z,37.80
2018-04-15T01:56:42.473Z,35.20
2018-04-15T01:57:42.468Z,38.30
2018-04-15T01:58:42.465Z,36.20
2018-04-15T01:59:42.461Z,37.40
2018-04-15T02:00:42.453Z,36.90
2018-04-15T02:01:42.458Z,37.80
2018-04-15T02:02:42.448Z,36.20
2018-04-15T02:03:42.441Z,38.40
2018-04-15T02:04:42.438Z,37.40
2018-04-15T02:05:42.438Z,37.30
2018-04-15T02:06:42.439Z,37.70
2018-04-15T02:07:42.431Z,37.80
2018-04-15T02:08:42.432Z,38.40
2018-04-15T02:09:42.427Z,39.30
2018-04-15T02:10:42.423Z,37.40
2018-04-15T02:11:42.417Z,37.80
2018-04-15T02:12:42.416Z,38.90
2018-04-15T02:13:42.420Z,40.00
2018-04-15T02:14:42.411Z,41.30
2018-04-15T02:15:42.410Z,42.50
2018-04-15T02:16:42.405Z,40.00
2018-04-15T02:17:42.402Z,41.20
2018-04-15T02:18:42.397Z,41.40
2018-04-15T02:19:42.394Z,38.40
2018-04-15T02:20:42.393Z,37.70
2018-04-15T02:21:42.390Z,37.10
2018-04-15T02:22:42.382Z,37.40
2018-04-15T02:23:42.386Z,38.20
2018-04-15T02:24:42.379Z,37.20
2018-04-15T02:25:42.372Z,36.50
2018-04-15T02:26:42.369Z,37.60
2018-04-15T02:27:42.367Z,35.10
2018-04-15T02:28:42.359Z,34.20
2018-04-15T02:29:42.413Z,35.90
2018-04-15T02:30:42.354Z,35.60
2018-04-15T02:31:42.358Z,34.10
2018-04-15T02:32:42.352Z,36.40
2018-04-15T02:33:42.350Z,34.80
2018-04-15T02:34:42.345Z,35.90
2018-04-15T02:35:42.340Z,34.40
2018-04-15T02:36:42.339Z,33.40
2018-04-15T02:37:42.337Z,34.30
2018-04-15T02:38:42.337Z,33.60
2018-04-15T02:39:42.327Z,33.20
2018-04-15T02:40:42.323Z,34.00
2018-04-15T02:41:42.322Z,33.50
2018-04-15T02:42:42.311Z,33.00
2018-04-15T02:43:42.315Z,32.70
2018-04-15T02:44:42.307Z,33.10
2018-04-15T02:45:42.305Z,32.10
2018-04-15T02:46:42.299Z,30.60
2018-04-15T02:47:42.302Z,32.10
2018-04-15T02:48:42.296Z,30.30
2018-04-15T02:49:42.293Z,31.40
2018-04-15T02:50:42.284Z,31.00
2018-04-15T02:51:42.284Z,31.20
2018-04-15T02:52:42.290Z,32.60
2018-04-15T02:53:42.279Z,32.20
2018-04-15T02:54:42.274Z,33.50
2018-04-15T02:55:42.273Z,32.20
2018-04-15T02:56:42.273Z,32.60
2018-04-15T02:57:42.262Z,30.10
2018-04-15T02:58:42.256Z,31.20
2018-04-15T02:59:42.254Z,30.50
2018-04-15T03:00:42.260Z,31.60
2018-04-15T03:01:42.252Z,27.40
2018-04-15T03:02:42.244Z,28.50
2018-04-15T03:03:42.240Z,30.40
2018-04-15T03:04:42.240Z,31.10
2018-04-15T03:05:42.241Z,31.00
2018-04-15T03:06:42.233Z,31.60
2018-04-15T03:07:42.239Z,30.80
2018-04-15T03:08:42.224Z,31.10
2018-04-15T03:09:42.224Z,31.30
2018-04-15T03:10:42.223Z,30.70
2018-04-15T03:11:42.214Z,32.50
2018-04-15T03:12:42.210Z,31.90
2018-04-15T03:13:42.207Z,32.70
2018-04-15T03:14:42.202Z,31.20
2018-04-15T03:15:42.200Z,32.10
2018-04-15T03:16:42.197Z,34.00
2018-04-15T03:17:42.191Z,31.90
2018-04-15T03:18:42.191Z,33.70
2018-04-15T03:19:42.187Z,33.60
2018-04-15T03:20:42.179Z,33.40
2018-04-15T03:21:42.179Z,32.90
2018-04-15T03:22:42.171Z,32.70
2018-04-15T03:23:42.169Z,32.60
2018-04-15T03:24:42.168Z,31.30
2018-04-15T03:25:42.163Z,30.70
2018-04-15T03:26:42.159Z,30.70
2018-04-15T03:27:42.155Z,30.00
2018-04-15T03:28:42.155Z,31.20
2018-04-15T03:29:42.157Z,29.70
2018-04-15T03:30:42.152Z,30.90
2018-04-15T03:31:42.145Z,31.40
2018-04-15T03:32:42.148Z,30.30
2018-04-15T03:33:42.139Z,33.00
2018-04-15T03:34:42.131Z,31.90
2018-04-15T03:35:42.137Z,32.40
2018-04-15T03:36:42.122Z,32.30
2018-04-15T03:37:42.120Z,30.80
2018-04-15T03:38:42.117Z,31.60
2018-04-15T03:39:42.116Z,32.90
2018-04-15T03:40:42.110Z,32.70
2018-04-15T03:41:42.107Z,32.60
2018-04-15T03:42:42.103Z,32.90
2018-04-15T03:43:42.098Z,34.50
2018-04-15T03:44:42.104Z,34.40
2018-04-15T03:45:42.096Z,36.20
2018-04-15T03:46:42.092Z,37.00
2018-04-15T03:47:42.087Z,37.00
2018-04-15T03:48:42.086Z,37.70
2018-04-15T03:49:42.080Z,37.40
2018-04-15T03:50:42.078Z,39.00
2018-04-15T03:51:42.073Z,36.10
2018-04-15T03:52:42.066Z,37.90
2018-04-15T03:53:42.066Z,36.50
2018-04-15T03:54:42.059Z,37.50
2018-04-15T03:55:42.061Z,38.10
2018-04-15T03:56:42.061Z,37.80
2018-04-15T03:57:42.050Z,40.10
2018-04-15T03:58:42.043Z,38.30
2018-04-15T03:59:42.043Z,39.10
2018-04-15T04:00:42.042Z,38.60
2018-04-15T04:01:42.036Z,37.70
2018-04-15T04:02:42.034Z,38.40
2018-04-15T04:03:42.028Z,35.90
2018-04-15T04:04:42.025Z,38.10
2018-04-15T04:05:42.024Z,38.10
2018-04-15T04:06:42.017Z,37.60
2018-04-15T04:07:42.016Z,39.00
2018-04-15T04:08:42.016Z,36.90
2018-04-15T04:09:42.001Z,36.60
2018-04-15T04:10:42.006Z,37.10
2018-04-15T04:11:41.995Z,37.40
2018-04-15T04:12:41.995Z,37.60
2018-04-15T04:13:41.991Z,36.60
2018-04-15T04:14:41.989Z,36.80
2018-04-15T04:15:41.982Z,36.80
2018-04-15T04:16:41.983Z,37.00
2018-04-15T04:17:41.990Z,36.40
2018-04-15T04:18:41.972Z,35.50
2018-04-15T04:19:41.975Z,36.70
2018-04-15T04:20:41.966Z,38.10
2018-04-15T04:21:41.958Z,38.00
2018-04-15T04:22:41.959Z,39.60
2018-04-15T04:23:41.962Z,39.10
2018-04-15T04:24:41.955Z,38.20
2018-04-15T04:25:41.956Z,39.70
2018-04-15T04:26:41.944Z,38.60
2018-04-15T04:27:41.942Z,38.40
2018-04-15T04:28:41.940Z,39.30
2018-04-15T04:29:41.935Z,37.80
2018-04-15T04:30:41.931Z,37.50
2018-04-15T04:31:41.927Z,39.30
2018-04-15T04:32:41.917Z,39.10
2018-04-15T04:33:41.919Z,40.40
2018-04-15T04:34:41.911Z,38.40
2018-04-15T04:35:41.915Z,38.30
2018-04-15T04:36:41.903Z,37.80
2018-04-15T04:37:41.904Z,36.70
2018-04-15T04:38:41.898Z,39.10
2018-04-15T04:39:41.902Z,38.30
2018-04-15T04:40:41.894Z,36.30
2018-04-15T04:41:41.891Z,36.30
2018-04-15T04:42:41.901Z,36.30
2018-04-15T04:43:41.881Z,37.00
2018-04-15T04:44:41.881Z,36.40
2018-04-15T04:45:41.877Z,37.80
2018-04-15T04:46:41.873Z,37.40
2018-04-15T04:47:41.867Z,37.60
2018-04-15T04:48:41.861Z,37.50
2018-04-15T04:49:41.859Z,36.80
2018-04-15T04:50:41.853Z,36.10
2018-04-15T04:51:41.851Z,37.40
2018-04-15T04:52:41.847Z,37.20
2018-04-15T04:53:41.843Z,37.50
2018-04-15T04:54:41.839Z,37.20
2018-04-15T04:55:41.837Z,35.70
2018-04-15T04:56:41.837Z,36.10
2018-04-15T04:57:41.847Z,34.90
2018-04-15T04:58:41.826Z,35.50
2018-04-15T04:59:41.825Z,34.10
2018-04-15T05:00:41.822Z,33.00
2018-04-15T05:01:41.817Z,33.30
2018-04-15T05:02:41.818Z,32.10
2018-04-15T05:03:41.808Z,30.70
2018-04-15T05:04:41.804Z,30.80
2018-04-15T05:05:41.796Z,30.20
2018-04-15T05:06:41.795Z,30.50
2018-04-15T05:07:41.797Z,28.90
2018-04-15T05:08:41.786Z,29.00
2018-04-15T05:09:41.796Z,29.00
2018-04-15T05:10:41.780Z,28.10
2018-04-15T05:11:41.776Z,29.50
2018-04-15T05:12:41.773Z,28.60
2018-04-15T05:13:41.771Z,29.40
2018-04-15T05:14:41.767Z,28.50
2018-04-15T05:15:41.782Z,28.80
2018-04-15T05:16:41.761Z,29.00
2018-04-15T05:17:41.756Z,27.80
2018-04-15T05:18:41.757Z,28.30
2018-04-15T05:19:41.748Z,28.10
2018-04-15T05:20:41.743Z,29.20
2018-04-15T05:21:41.737Z,28.50
2018-04-15T05:22:41.735Z,29.80
2018-04-15T05:23:41.729Z,27.70
2018-04-15T05:24:41.731Z,28.80
2018-04-15T05:25:41.731Z,30.00
2018-04-15T05:26:41.723Z,29.20
2018-04-15T05:27:41.723Z,27.00
2018-04-15T05:28:41.720Z,27.10
2018-04-15T05:29:41.710Z,27.40
2018-04-15T05:30:41.704Z,27.60
2018-04-15T05:31:41.703Z,25.80
2018-04-15T05:32:41.698Z,26.30
2018-04-15T05:33:41.696Z,26.10
2018-04-15T05:34:41.693Z,24.90
2018-04-15T05:35:41.683Z,26.30
2018-04-15T05:36:41.687Z,24.20
2018-04-15T05:37:41.678Z,25.30
2018-04-15T05:38:41.678Z,24.50
2018-04-15T05:39:41.673Z,24.50
2018-04-15T05:40:41.673Z,25.00
2018-04-15T05:41:41.670Z,23.80
2018-04-15T05:42:41.667Z,24.80
2018-04-15T05:43:41.687Z,23.90
2018-04-15T05:44:41.665Z,24.60
2018-04-15T05:45:41.663Z,24.00
2018-04-15T05:46:41.649Z,23.80
2018-04-15T05:47:41.696Z,23.80
2018-04-15T05:48:41.640Z,23.70
2018-04-15T05:49:41.636Z,23.70
2018-04-15T05:50:41.632Z,23.20
2018-04-15T05:51:41.629Z,23.30
2018-04-15T05:52:41.628Z,23.20
2018-04-15T05:53:41.627Z,22.60
2018-04-15T05:54:41.619Z,22.40
2018-04-15T05:55:41.618Z,21.30
2018-04-15T05:56:41.613Z,21.30
2018-04-15T05:57:41.609Z,22.90
2018-04-15T05:58:41.604Z,21.70
2018-04-15T05:59:41.603Z,22.40
2018-04-15T06:00:41.598Z,21.70
2018-04-15T06:01:41.592Z,22.70
2018-04-15T06:02:41.588Z,22.90
2018-04-15T06:03:41.585Z,24.00
2018-04-15T06:04:41.577Z,22.10
2018-04-15T06:05:41.581Z,21.70
2018-04-15T06:06:41.571Z,19.70
2018-04-15T06:07:41.572Z,20.90
2018-04-15T06:08:41.571Z,21.60
2018-04-15T06:09:41.573Z,19.20
2018-04-15T06:10:41.560Z,20.10
2018-04-15T06:11:41.559Z,18.70
2018-04-15T06:12:41.555Z,18.70
2018-04-15T06:13:41.553Z,18.90
2018-04-15T06:14:41.549Z,18.70
2018-04-15T06:15:41.544Z,17.80
2018-04-15T06:16:41.540Z,18.80
2018-04-15T06:17:41.532Z,18.30
2018-04-15T06:18:41.533Z,18.00
2018-04-15T06:19:41.527Z,17.70
2018-04-15T06:20:41.523Z,17.50
2018-04-15T06:21:41.521Z,17.70
2018-04-15T06:22:41.520Z,17.10
2018-04-15T06:23:41.511Z,18.10
2018-04-15T06:24:41.515Z,18.10
2018-04-15T06:25:41.510Z,16.90
2018-04-15T06:26:41.504Z,17.20
2018-04-15T06:27:41.508Z,17.90
2018-04-15T06:28:41.497Z,17.40
2018-04-15T06:29:41.492Z,16.70
2018-04-15T06:30:41.508Z,17.50
2018-04-15T06:31:41.505Z,16.80
2018-04-15T06:32:41.500Z,17.20
2018-04-15T06:33:41.475Z,16.30
2018-04-15T06:34:41.473Z,16.80
2018-04-15T06:35:41.476Z,16.40
2018-04-15T06:36:41.500Z,16.00
2018-04-15T06:37:41.462Z,15.00
2018-04-15T06:38:41.457Z,16.30
2018-04-15T06:39:41.487Z,14.20
2018-04-15T06:40:41.474Z,14.20
2018-04-15T06:41:41.455Z,13.80
2018-04-15T06:42:41.451Z,13.10
2018-04-15T06:43:41.442Z,11.60
2018-04-15T06:44:41.451Z,9.60
2018-04-15T06:45:41.462Z,9.70
2018-04-15T06:46:41.461Z,9.90
2018-04-15T06:47:41.435Z,10.90
2018-04-15T06:48:41.435Z,9.80
2018-04-15T06:49:41.434Z,8.30
2018-04-15T06:50:41.423Z,8.40
2018-04-15T06:51:41.417Z,8.10
2018-04-15T06:52:41.413Z,8.60
2018-04-15T06:53:41.425Z,10.90
2018-04-15T06:54:41.413Z,10.90
2018-04-15T06:55:41.438Z,9.50
2018-04-15T06:56:41.404Z,8.80
2018-04-15T06:57:41.413Z,8.60
2018-04-15T06:58:41.404Z,7.80
2018-04-15T06:59:41.397Z,7.50
2018-04-15T07:00:41.391Z,7.60
2018-04-15T07:01:41.391Z,6.30
2018-04-15T07:02:41.385Z,5.60
2018-04-15T07:03:41.383Z,5.20
2018-04-15T07:04:41.389Z,4.70
2018-04-15T07:05:41.373Z,4.40
2018-04-15T07:06:41.376Z,4.20
2018-04-15T07:07:41.369Z,4.20
2018-04-15T07:08:41.379Z,4.00
2018-04-15T07:09:41.368Z,4.00
2018-04-15T07:10:41.363Z,3.40
2018-04-15T07:11:41.367Z,3.50
2018-04-15T07:12:41.371Z,3.20
2018-04-15T07:13:41.369Z,3.20
2018-04-15T07:14:41.368Z,3.80
2018-04-15T07:15:41.360Z,7.70
2018-04-15T07:16:41.362Z,5.80
2018-04-15T07:17:41.360Z,8.30
2018-04-15T07:18:41.365Z,6.80
2018-04-15T07:19:41.363Z,3.20
2018-04-15T07:20:41.356Z,4.20
2018-04-15T07:21:41.424Z,3.90
2018-04-15T07:22:41.354Z,3.00
2018-04-15T07:23:41.356Z,3.30
2018-04-15T07:24:41.354Z,3.20
2018-04-15T07:25:41.355Z,3.50
2018-04-15T07:26:41.355Z,4.00
2018-04-15T07:27:41.361Z,6.50
2018-04-15T07:28:41.367Z,4.10
2018-04-15T07:29:41.372Z,3.80
2018-04-15T07:30:41.367Z,6.00
2018-04-15T07:31:41.375Z,4.70
2018-04-15T07:32:41.356Z,5.90
2018-04-15T07:33:41.381Z,4.20
2018-04-15T07:34:41.360Z,3.80
2018-04-15T07:35:41.352Z,6.60
2018-04-15T07:36:41.364Z,6.20
2018-04-15T07:37:41.354Z,3.20
2018-04-15T07:38:41.356Z,3.00
2018-04-15T07:39:41.361Z,3.20
2018-04-15T07:40:41.357Z,2.80
2018-04-15T07:41:41.355Z,4.00
2018-04-15T07:42:41.368Z,3.40
2018-04-15T07:43:41.351Z,2.80
2018-04-15T07:44:41.352Z,3.00
2018-04-15T07:45:41.355Z,2.60
2018-04-15T07:46:41.348Z,3.60
2018-04-15T07:47:41.354Z,5.40
2018-04-15T07:48:41.349Z,3.30
2018-04-15T07:49:41.349Z,3.10
2018-04-15T07:50:41.351Z,3.00
2018-04-15T07:51:41.350Z,2.90
2018-04-15T07:52:41.353Z,2.90
2018-04-15T07:53:41.354Z,4.90
2018-04-15T07:54:41.359Z,8.00
2018-04-15T07:55:41.352Z,10.90
2018-04-15T07:56:41.357Z,7.20
2018-04-15T07:57:41.355Z,3.30
2018-04-15T07:58:41.361Z,5.10
2018-04-15T07:59:41.353Z,10.50
2018-04-15T08:00:41.349Z,9.60
2018-04-15T08:01:41.353Z,7.30
2018-04-15T08:02:41.354Z,5.30
2018-04-15T08:03:41.352Z,3.20
2018-04-15T08:04:41.352Z,2.90
2018-04-15T08:05:41.356Z,3.00
2018-04-15T08:06:41.355Z,3.90
2018-04-15T08:07:41.406Z,2.70
2018-04-15T08:08:41.358Z,2.60
2018-04-15T08:09:41.362Z,2.50
2018-04-15T08:10:41.369Z,2.30
2018-04-15T08:11:41.359Z,2.40
2018-04-15T08:12:41.365Z,2.20
2018-04-15T08:13:41.364Z,2.50
2018-04-15T08:14:41.361Z,2.10
2018-04-15T08:15:41.363Z,2.00
2018-04-15T08:16:41.361Z,3.90
2018-04-15T08:17:41.363Z,2.40
2018-04-15T08:18:41.358Z,3.20
2018-04-15T08:19:41.364Z,7.40
2018-04-15T08:20:41.362Z,3.60
2018-04-15T08:21:41.370Z,3.70
2018-04-15T08:22:41.362Z,2.50
2018-04-15T08:23:41.362Z,1.90
2018-04-15T08:24:41.366Z,2.10
2018-04-15T08:25:41.366Z,1.80
2018-04-15T08:26:41.364Z,2.20
2018-04-15T08:27:41.361Z,3.00
2018-04-15T08:28:41.363Z,2.50
2018-04-15T08:29:41.392Z,1.90
2018-04-15T08:30:41.372Z,1.90
2018-04-15T08:31:41.371Z,2.10
2018-04-15T08:32:41.367Z,2.00
2018-04-15T08:33:41.368Z,1.80
2018-04-15T08:34:41.368Z,1.90
2018-04-15T08:35:41.367Z,2.10
2018-04-15T08:36:41.371Z,1.70
2018-04-15T08:37:41.372Z,2.20
2018-04-15T08:38:41.386Z,1.90
2018-04-15T08:39:41.373Z,1.90
2018-04-15T08:40:41.371Z,2.10
2018-04-15T08:41:41.371Z,2.00
2018-04-15T08:42:41.369Z,2.10
2018-04-15T08:43:41.368Z,2.00
2018-04-15T08:44:41.374Z,2.00
2018-04-15T08:45:41.376Z,2.00
2018-04-15T08:46:41.380Z,2.10
2018-04-15T08:47:41.369Z,2.10
2018-04-15T08:48:41.380Z,2.00
2018-04-15T08:49:41.399Z,1.80
2018-04-15T08:50:41.372Z,2.20
2018-04-15T08:51:41.374Z,2.00
2018-04-15T08:52:41.379Z,1.90
2018-04-15T08:53:41.376Z,1.90
2018-04-15T08:54:41.376Z,2.00
2018-04-15T08:55:41.376Z,1.80
2018-04-15T08:56:41.373Z,1.90
2018-04-15T08:57:41.386Z,1.80
2018-04-15T08:58:41.380Z,1.70
2018-04-15T08:59:41.374Z,1.80
2018-04-15T09:00:41.415Z,1.90
2018-04-15T09:01:41.394Z,2.30
2018-04-15T09:02:41.377Z,2.30
2018-04-15T09:03:41.385Z,2.00
2018-04-15T09:04:41.380Z,2.20
2018-04-15T09:05:41.384Z,2.00
2018-04-15T09:06:41.387Z,2.00
2018-04-15T09:07:41.379Z,1.80
2018-04-15T09:08:41.373Z,1.90
2018-04-15T09:09:41.405Z,2.10
2018-04-15T09:10:41.383Z,1.80
2018-04-15T09:11:41.374Z,2.20
2018-04-15T09:12:41.376Z,2.00
2018-04-15T09:13:41.386Z,1.80
2018-04-15T09:14:41.383Z,1.80
2018-04-15T09:15:41.400Z,1.60
2018-04-15T09:16:41.430Z,2.00
2018-04-15T09:17:41.393Z,2.00
2018-04-15T09:18:41.390Z,1.80
2018-04-15T09:19:41.402Z,2.20
2018-04-15T09:20:41.399Z,1.90
2018-04-15T09:21:41.387Z,1.80
2018-04-15T09:22:41.405Z,2.10
2018-04-15T09:23:41.405Z,2.20
2018-04-15T09:24:41.407Z,2.30
2018-04-15T09:25:41.379Z,2.30
2018-04-15T09:26:41.385Z,2.00
2018-04-15T09:27:41.402Z,2.10
2018-04-15T09:28:41.394Z,2.30
2018-04-15T09:29:41.404Z,1.90
2018-04-15T09:30:41.384Z,2.10
2018-04-15T09:31:41.397Z,2.30
2018-04-15T09:32:41.385Z,2.20
2018-04-15T09:33:41.397Z,2.20
2018-04-15T09:34:41.388Z,2.20
2018-04-15T09:35:41.393Z,2.40
2018-04-15T09:36:41.388Z,2.10
2018-04-15T09:37:41.392Z,2.10
2018-04-15T09:38:41.399Z,1.80
2018-04-15T09:39:41.975Z,1.80
2018-04-15T09:40:41.381Z,2.10
2018-04-15T09:41:41.976Z,2.10
2018-04-15T09:42:41.390Z,2.00
2018-04-15T09:43:41.395Z,2.30
2018-04-15T09:44:41.412Z,1.80
2018-04-15T09:45:41.408Z,2.00
2018-04-15T09:46:41.388Z,2.20
2018-04-15T09:47:41.395Z,2.30
2018-04-15T09:48:41.403Z,2.40
2018-04-15T09:49:41.389Z,1.90
2018-04-15T09:50:41.399Z,2.00
2018-04-15T09:51:41.398Z,1.90
2018-04-15T09:52:41.386Z,1.70
2018-04-15T09:53:41.406Z,1.90
2018-04-15T09:54:41.402Z,1.60
2018-04-15T09:55:41.412Z,1.50
2018-04-15T09:56:41.400Z,1.90
2018-04-15T09:57:41.396Z,1.80
2018-04-15T09:58:41.381Z,1.70
2018-04-15T09:59:41.396Z,1.70
2018-04-15T10:00:41.403Z,1.60
2018-04-15T10:01:41.422Z,1.90
2018-04-15T10:02:41.412Z,1.60
2018-04-15T10:03:41.404Z,1.80
2018-04-15T10:04:41.383Z,1.60
2018-04-15T10:05:41.401Z,1.50
2018-04-15T10:06:41.390Z,1.50
2018-04-15T10:07:41.409Z,1.60
2018-04-15T10:08:41.400Z,1.60
2018-04-15T10:09:41.390Z,1.60
2018-04-15T10:10:41.381Z,1.60
2018-04-15T10:11:41.410Z,1.50
2018-04-15T10:12:41.405Z,1.40
2018-04-15T10:13:41.401Z,1.50
2018-04-15T10:14:41.408Z,1.90
2018-04-15T10:15:41.392Z,1.50
2018-04-15T10:16:41.395Z,1.60
2018-04-15T10:17:41.410Z,1.40
2018-04-15T10:18:41.401Z,1.50
2018-04-15T10:19:41.404Z,1.30
2018-04-15T10:20:41.411Z,1.50
2018-04-15T10:21:42.821Z,1.60
2018-04-15T10:22:41.424Z,1.60
2018-04-15T10:23:41.414Z,1.70
2018-04-15T10:24:41.399Z,1.90
2018-04-15T10:25:41.392Z,1.70
2018-04-15T10:26:41.418Z,1.70
2018-04-15T10:27:41.398Z,1.70
2018-04-15T10:28:41.404Z,1.60
2018-04-15T10:29:41.408Z,1.60
2018-04-15T10:30:41.417Z,1.70
2018-04-15T10:31:41.415Z,1.80
2018-04-15T10:32:41.454Z,1.50
2018-04-15T10:33:41.413Z,1.80
2018-04-15T10:34:41.421Z,1.50
2018-04-15T10:35:41.427Z,1.60
2018-04-15T10:36:41.422Z,1.70
2018-04-15T10:37:41.420Z,1.70
2018-04-15T10:38:41.430Z,1.20
2018-04-15T10:39:41.436Z,1.60
2018-04-15T10:40:41.421Z,1.50
2018-04-15T10:41:41.403Z,1.50
2018-04-15T10:42:41.436Z,1.90
2018-04-15T10:43:41.412Z,1.50
2018-04-15T10:44:41.418Z,1.50
2018-04-15T10:45:41.422Z,1.20
2018-04-15T10:46:41.434Z,1.40
2018-04-15T10:47:41.421Z,1.30
2018-04-15T10:48:42.017Z,1.30
2018-04-15T10:49:41.424Z,1.40
2018-04-15T10:50:41.447Z,1.30
2018-04-15T10:51:41.424Z,1.50
2018-04-15T10:52:41.441Z,1.40
2018-04-15T10:53:41.430Z,1.20
2018-04-15T10:54:41.479Z,1.40
2018-04-15T10:55:41.429Z,1.60
2018-04-15T10:56:41.447Z,1.50
2018-04-15T10:57:41.457Z,1.30
2018-04-15T10:58:41.446Z,1.30
2018-04-15T10:59:41.438Z,1.30
2018-04-15T11:00:41.443Z,1.20
2018-04-15T11:01:41.437Z,1.30
2018-04-15T11:02:41.435Z,1.40
2018-04-15T11:03:41.455Z,1.20
2018-04-15T11:04:41.462Z,1.40
2018-04-15T11:05:41.443Z,1.50
2018-04-15T11:06:41.441Z,1.30
2018-04-15T11:07:41.457Z,1.40
2018-04-15T11:08:41.525Z,1.50
2018-04-15T11:09:41.443Z,1.50
2018-04-15T11:10:41.455Z,1.50
2018-04-15T11:11:41.477Z,1.70
2018-04-15T11:12:41.457Z,1.40
2018-04-15T11:13:41.462Z,1.30
2018-04-15T11:14:41.467Z,1.40
2018-04-15T11:15:41.473Z,1.30
2018-04-15T11:16:41.459Z,1.30
2018-04-15T11:17:41.459Z,1.40
2018-04-15T11:18:41.487Z,1.40
2018-04-15T11:19:41.464Z,1.50
2018-04-15T11:20:41.469Z,1.30
2018-04-15T11:21:41.475Z,1.10
2018-04-15T11:22:41.472Z,1.20
2018-04-15T11:23:41.489Z,1.40
2018-04-15T11:24:41.481Z,1.30
2018-04-15T11:25:41.484Z,1.40
2018-04-15T11:26:41.474Z,1.20
2018-04-15T11:27:41.487Z,1.30
2018-04-15T11:28:41.486Z,1.30
2018-04-15T11:29:41.506Z,1.40
2018-04-15T11:30:41.507Z,1.50
2018-04-15T11:31:41.506Z,1.50
2018-04-15T11:32:41.498Z,1.50
2018-04-15T11:33:41.510Z,1.40
2018-04-15T11:34:41.503Z,1.40
2018-04-15T11:35:41.519Z,1.50
2018-04-15T11:36:41.564Z,1.30
2018-04-15T11:37:41.498Z,1.50
2018-04-15T11:38:41.509Z,1.50
2018-04-15T11:39:41.511Z,1.30
2018-04-15T11:40:41.522Z,1.30
2018-04-15T11:41:41.518Z,1.20
2018-04-15T11:42:41.525Z,1.40
2018-04-15T11:43:41.527Z,1.30
2018-04-15T11:44:41.549Z,1.40
2018-04-15T11:45:41.516Z,1.40
2018-04-15T11:46:41.525Z,1.40
2018-04-15T11:47:41.520Z,1.30
2018-04-15T11:48:41.543Z,1.30
2018-04-15T11:49:41.516Z,1.30
2018-04-15T11:50:41.526Z,1.40
2018-04-15T11:51:41.526Z,2.80
2018-04-15T11:52:41.527Z,1.60
2018-04-15T11:53:41.518Z,1.50
2018-04-15T11:54:41.537Z,1.90
2018-04-15T11:55:42.044Z,3.00
2018-04-15T11:56:41.536Z,3.40
2018-04-15T11:57:41.540Z,3.10
2018-04-15T11:58:41.538Z,2.10
2018-04-15T11:59:41.543Z,1.40
2018-04-15T12:00:41.546Z,1.50
2018-04-15T12:01:41.548Z,1.60
2018-04-15T12:02:41.544Z,1.30
2018-04-15T12:03:41.534Z,1.30
2018-04-15T12:04:41.557Z,1.40
2018-04-15T12:05:41.556Z,1.70
2018-04-15T12:06:41.551Z,2.40
2018-04-15T12:07:41.568Z,1.60
2018-04-15T12:08:41.567Z,1.60
2018-04-15T12:09:41.568Z,1.50
2018-04-15T12:10:41.555Z,2.30
2018-04-15T12:11:41.567Z,1.60
2018-04-15T12:12:41.569Z,1.50
2018-04-15T12:13:41.569Z,1.60
2018-04-15T12:14:42.060Z,1.50
2018-04-15T12:15:41.569Z,1.70
2018-04-15T12:16:41.574Z,1.60
2018-04-15T12:17:41.575Z,1.30
2018-04-15T12:18:41.585Z,1.60
2018-04-15T12:19:41.578Z,1.50
2018-04-15T12:20:41.597Z,1.50
2018-04-15T12:21:41.590Z,1.40
2018-04-15T12:22:41.578Z,1.70
2018-04-15T12:23:41.578Z,1.50
2018-04-15T12:24:41.592Z,1.70
2018-04-15T12:25:41.588Z,1.60
2018-04-15T12:26:41.623Z,1.40
2018-04-15T12:27:41.602Z,1.50
2018-04-15T12:28:41.602Z,1.40
2018-04-15T12:29:41.585Z,3.40
2018-04-15T12:30:41.575Z,5.50
2018-04-15T12:31:41.622Z,4.00
2018-04-15T12:32:41.588Z,3.00
2018-04-15T12:33:41.640Z,2.40
2018-04-15T12:34:41.590Z,1.80
2018-04-15T12:35:41.633Z,1.70
2018-04-15T12:36:41.595Z,1.60
2018-04-15T12:37:41.599Z,1.50
2018-04-15T12:38:41.596Z,1.50
2018-04-15T12:39:41.610Z,1.60
2018-04-15T12:40:42.599Z,1.40
2018-04-15T12:41:41.599Z,1.40
2018-04-15T12:42:41.598Z,1.30
2018-04-15T12:43:41.628Z,1.40
2018-04-15T12:44:41.623Z,1.30
2018-04-15T12:45:41.611Z,1.30
2018-04-15T12:46:41.616Z,1.30
2018-04-15T12:47:41.623Z,1.40
2018-04-15T12:48:41.608Z,1.40
2018-04-15T12:49:41.624Z,1.20
2018-04-15T12:50:41.614Z,1.30
2018-04-15T12:51:41.621Z,1.20
2018-04-15T12:52:41.621Z,1.40
2018-04-15T12:53:41.671Z,1.40
2018-04-15T12:54:41.632Z,1.40
2018-04-15T12:55:41.624Z,1.30
2018-04-15T12:56:41.632Z,1.30
2018-04-15T12:57:41.632Z,1.50
2018-04-15T12:58:41.629Z,1.60
2018-04-15T12:59:41.631Z,1.60
2018-04-15T13:00:41.634Z,1.60
2018-04-15T13:01:41.626Z,1.60
2018-04-15T13:02:41.652Z,1.70
2018-04-15T13:03:41.662Z,1.70
2018-04-15T13:04:41.649Z,1.50